createdAt,value
2022-09-15T00:01:08.121Z,97120.44
2022-09-15T00:03:42.286Z,97119.59
2022-09-15T00:06:17.332Z,97108.84
2022-09-15T00:19:29.329Z,97124.16
2022-09-15T00:22:02.763Z,97130.41
2022-09-15T00:24:36.314Z,97129.72
2022-09-15T00:27:09.831Z,97133.44
2022-09-15T00:29:43.297Z,97141.50
2022-09-15T00:46:22.302Z,97139.81
2022-09-15T00:49:12.341Z,97145.38
2022-09-15T00:51:52.306Z,97148.94
2022-09-15T00:54:40.293Z,97143.56
2022-09-15T00:57:21.027Z,97153.81
2022-09-15T01:00:06.292Z,97154.84
2022-09-15T01:13:21.273Z,97161.91
2022-09-15T01:16:08.884Z,97161.03
2022-09-15T01:19:01.262Z,97161.41
2022-09-15T01:21:45.676Z,97161.41
2022-09-15T01:24:54.284Z,97169.63
2022-09-15T01:38:29.304Z,97181.47
2022-09-15T01:41:08.901Z,97182.66
2022-09-15T01:43:59.277Z,97193.41
2022-09-15T01:46:38.896Z,97193.41
2022-09-15T01:49:26.278Z,97194.41
2022-09-15T01:52:00.059Z,97191.91
2022-09-15T02:05:07.267Z,97185.03
2022-09-15T02:08:00.842Z,97175.09
2022-09-15T02:10:44.614Z,97184.84
2022-09-15T02:13:36.304Z,97176.28
2022-09-15T02:16:17.478Z,97187.03
2022-09-15T02:19:23.341Z,97192.41
2022-09-15T02:22:06.182Z,97201.50
2022-09-15T02:31:50.382Z,97195.13
2022-09-15T02:34:37.447Z,97186.06
2022-09-15T02:37:20.309Z,97181.69
2022-09-15T02:39:57.058Z,97193.44
2022-09-15T02:42:39.309Z,97198.19
2022-09-15T02:45:12.632Z,97212.44
2022-09-15T02:58:33.231Z,97211.13
2022-09-15T03:01:15.375Z,97212.63
2022-09-15T03:03:50.131Z,97214.81
2022-09-15T03:06:30.304Z,97209.63
2022-09-15T03:09:07.283Z,97220.75
2022-09-15T03:25:18.308Z,97199.91
2022-09-15T03:27:51.648Z,97196.19
2022-09-15T03:30:25.326Z,97206.81
2022-09-15T03:32:58.681Z,97212.00
2022-09-15T03:35:32.284Z,97214.88
2022-09-15T03:38:05.872Z,97217.56
2022-09-15T03:40:41.293Z,97224.75
2022-09-15T03:54:02.295Z,97219.75
2022-09-15T03:56:38.149Z,97219.75
2022-09-15T03:59:13.272Z,97220.06
2022-09-15T04:01:47.373Z,97224.13
2022-09-15T04:04:22.308Z,97223.44
2022-09-15T04:06:55.722Z,97219.75
2022-09-15T04:19:46.221Z,97217.72
2022-09-15T04:22:26.286Z,97212.53
2022-09-15T04:24:59.677Z,97220.09
2022-09-15T04:27:40.296Z,97213.03
2022-09-15T04:30:13.919Z,97207.66
2022-09-15T04:46:29.306Z,97233.53
2022-09-15T04:49:03.234Z,97233.72
2022-09-15T04:51:37.297Z,97245.63
2022-09-15T04:54:10.749Z,97234.88
2022-09-15T04:56:45.324Z,97234.03
2022-09-15T04:59:19.717Z,97244.91
2022-09-15T05:01:55.393Z,97243.94
2022-09-15T05:12:18.258Z,97238.88
2022-09-15T05:14:58.316Z,97244.25
2022-09-15T05:17:34.629Z,97235.53
2022-09-15T05:20:17.668Z,97232.16
2022-09-15T05:22:51.638Z,97235.84
2022-09-15T05:25:25.279Z,97232.47
2022-09-15T05:39:07.298Z,97256.16
2022-09-15T05:41:40.814Z,97250.78
2022-09-15T05:44:16.299Z,97255.00
2022-09-15T05:46:50.174Z,97259.53
2022-09-15T05:49:24.286Z,97261.53
2022-09-15T05:51:57.571Z,97261.03
2022-09-15T06:08:13.299Z,97257.84
2022-09-15T06:10:46.661Z,97256.69
2022-09-15T06:13:20.296Z,97258.34
2022-09-15T06:15:53.940Z,97259.22
2022-09-15T06:18:27.288Z,97267.97
2022-09-15T06:21:07.708Z,97267.97
2022-09-15T06:34:06.227Z,97274.66
2022-09-15T06:36:47.276Z,97271.84
2022-09-15T06:39:20.619Z,97273.50
2022-09-15T06:42:02.263Z,97275.19
2022-09-15T06:44:37.098Z,97273.19
2022-09-15T06:47:11.292Z,97268.81
2022-09-15T07:00:23.274Z,97275.53
2022-09-15T07:02:56.812Z,97281.56
2022-09-15T07:05:30.307Z,97281.41
2022-09-15T07:08:04.216Z,97289.97
2022-09-15T07:10:38.317Z,97285.78
2022-09-15T07:13:11.938Z,97291.81
2022-09-15T07:15:47.274Z,97284.41
2022-09-15T07:26:19.274Z,97274.50
2022-09-15T07:29:04.383Z,97271.63
2022-09-15T07:31:39.835Z,97275.00
2022-09-15T07:34:14.348Z,97279.50
2022-09-15T07:36:48.887Z,97277.50
2022-09-15T07:39:24.728Z,97283.56
2022-09-15T07:41:59.216Z,97280.00
2022-09-15T07:54:49.271Z,97275.13
2022-09-15T07:57:29.355Z,97275.13
2022-09-15T08:00:05.068Z,97276.81
2022-09-15T08:02:45.327Z,97274.81
2022-09-15T08:05:18.908Z,97279.00
2022-09-15T08:21:34.289Z,97300.84
2022-09-15T08:24:18.528Z,97298.16
2022-09-15T08:26:58.317Z,97299.03
2022-09-15T08:29:31.791Z,97296.31
2022-09-15T08:32:06.728Z,97297.34
2022-09-15T08:34:40.947Z,97310.59
2022-09-15T08:37:16.308Z,97316.00
2022-09-15T08:47:18.247Z,97302.34
2022-09-15T08:50:08.308Z,97319.00
2022-09-15T08:52:50.727Z,97316.63
2022-09-15T08:55:44.348Z,97314.25
2022-09-15T08:58:21.450Z,97307.72
2022-09-15T09:01:14.382Z,97311.06
2022-09-15T09:14:41.288Z,97327.03
2022-09-15T09:17:39.167Z,97329.06
2022-09-15T09:20:40.307Z,97326.38
2022-09-15T09:23:19.806Z,97320.00
2022-09-15T09:26:02.287Z,97320.81
2022-09-15T09:39:53.360Z,97320.81
2022-09-15T09:42:31.807Z,97327.22
2022-09-15T09:45:17.316Z,97334.28
2022-09-15T09:47:50.771Z,97325.53
2022-09-15T09:50:44.289Z,97323.69
2022-09-15T09:53:28.241Z,97323.88
2022-09-15T09:56:32.307Z,97315.94
2022-09-15T10:06:37.268Z,97313.94
2022-09-15T10:09:24.348Z,97321.00
2022-09-15T10:12:02.751Z,97308.03
2022-09-15T10:14:47.351Z,97311.41
2022-09-15T10:17:25.907Z,97311.25
2022-09-15T10:20:06.310Z,97306.38
2022-09-15T10:33:33.236Z,97298.91
2022-09-15T10:36:14.649Z,97306.00
2022-09-15T10:39:05.309Z,97309.31
2022-09-15T10:41:49.968Z,97302.94
2022-09-15T10:44:47.308Z,97303.78
2022-09-15T11:02:04.319Z,97295.53
2022-09-15T11:05:09.327Z,97307.13
2022-09-15T11:08:07.367Z,97300.56
2022-09-15T11:11:00.327Z,97300.56
2022-09-15T11:13:53.661Z,97296.22
2022-09-15T11:16:53.307Z,97305.94
2022-09-15T11:26:55.295Z,97306.31
2022-09-15T11:29:54.307Z,97293.84
2022-09-15T11:32:40.308Z,97296.53
2022-09-15T11:35:49.487Z,97295.53
2022-09-15T11:38:36.987Z,97303.63
2022-09-15T11:54:49.368Z,97293.28
2022-09-15T11:57:31.808Z,97286.72
2022-09-15T12:00:19.329Z,97288.06
2022-09-15T12:03:11.877Z,97284.34
2022-09-15T12:06:00.308Z,97288.34
2022-09-15T12:22:48.250Z,97287.50
2022-09-15T12:25:38.327Z,97286.47
2022-09-15T12:28:40.867Z,97287.91
2022-09-15T12:31:40.362Z,97273.56
2022-09-15T12:34:36.088Z,97273.31
2022-09-15T12:37:21.668Z,97277.13
2022-09-15T12:47:30.307Z,97273.50
2022-09-15T12:50:29.328Z,97273.16
2022-09-15T12:53:18.509Z,97276.34
2022-09-15T12:56:02.327Z,97270.41
2022-09-15T12:58:40.867Z,97278.94
2022-09-15T13:01:39.311Z,97277.75
2022-09-15T13:14:54.288Z,97277.41
2022-09-15T13:17:29.061Z,97274.16
2022-09-15T13:20:20.328Z,97276.88
2022-09-15T13:22:55.769Z,97272.47
2022-09-15T13:25:35.287Z,97270.06
2022-09-15T13:42:55.288Z,97281.94
2022-09-15T13:45:57.355Z,97281.00
2022-09-15T13:49:07.148Z,97280.44
2022-09-15T13:51:59.309Z,97278.66
2022-09-15T13:54:32.807Z,97275.03
2022-09-15T13:57:08.328Z,97270.19
2022-09-15T14:07:29.269Z,97262.50
2022-09-15T14:10:10.348Z,97264.59
2022-09-15T14:12:44.028Z,97271.19
2022-09-15T14:15:29.676Z,97281.50
2022-09-15T14:18:04.232Z,97288.09
2022-09-15T14:20:39.451Z,97281.38
2022-09-15T14:34:24.567Z,97293.88
2022-09-15T14:37:08.685Z,97297.78
2022-09-15T14:40:05.732Z,97293.78
2022-09-15T14:42:41.208Z,97287.91
2022-09-15T15:02:33.343Z,97294.78
2022-09-15T15:08:08.977Z,97298.22
2022-09-15T15:10:49.314Z,97298.34
2022-09-15T15:13:22.897Z,97296.88
2022-09-15T15:15:57.239Z,97304.28
2022-09-15T15:29:09.239Z,97289.19
2022-09-15T15:31:42.661Z,97291.03
2022-09-15T15:34:31.241Z,97295.78
2022-09-15T15:37:16.250Z,97294.28
2022-09-15T15:39:56.348Z,97288.22
2022-09-15T15:56:37.201Z,97270.78
2022-09-15T15:59:20.302Z,97273.66
2022-09-15T16:01:53.771Z,97271.31
2022-09-15T16:04:27.290Z,97275.88
2022-09-15T16:07:00.769Z,97277.88
2022-09-15T16:09:34.250Z,97275.19
2022-09-15T16:22:46.269Z,97287.06
2022-09-15T16:25:34.505Z,97293.16
2022-09-15T16:28:14.246Z,97296.22
2022-09-15T16:30:47.824Z,97293.84
2022-09-15T16:33:24.281Z,97293.19
2022-09-15T16:36:00.639Z,97300.44
2022-09-15T16:48:58.201Z,97303.50
2022-09-15T16:51:39.497Z,97307.19
2022-09-15T16:54:18.050Z,97310.06
2022-09-15T16:56:58.261Z,97308.72
2022-09-15T16:59:31.570Z,97309.03
2022-09-15T17:15:47.299Z,97313.97
2022-09-15T17:18:21.634Z,97312.47
2022-09-15T17:20:56.222Z,97322.56
2022-09-15T17:23:34.550Z,97322.88
2022-09-15T17:26:20.260Z,97320.38
2022-09-15T17:28:53.616Z,97324.25
2022-09-15T17:31:30.326Z,97329.78
2022-09-15T17:41:28.224Z,97329.97
2022-09-15T17:44:08.289Z,97323.22
2022-09-15T17:46:43.633Z,97322.75
2022-09-15T17:49:17.234Z,97320.88
2022-09-15T17:51:50.575Z,97322.25
2022-09-15T17:54:24.822Z,97332.16
2022-09-15T18:08:12.232Z,97334.84
2022-09-15T18:10:45.928Z,97337.53
2022-09-15T18:13:23.244Z,97345.75
2022-09-15T18:16:00.022Z,97350.47
2022-09-15T18:18:40.232Z,97361.22
2022-09-15T18:21:25.652Z,97363.25
2022-09-15T18:34:58.197Z,97374.16
2022-09-15T18:37:38.223Z,97363.56
2022-09-15T18:40:15.250Z,97369.94
2022-09-15T18:42:55.281Z,97370.94
2022-09-15T18:45:28.744Z,97376.66
2022-09-15T18:48:02.237Z,97367.22
2022-09-15T18:50:38.390Z,97383.72
2022-09-15T19:03:27.215Z,97389.97
2022-09-15T19:06:12.227Z,97391.97
2022-09-15T19:08:45.583Z,97386.09
2022-09-15T19:11:19.199Z,97385.56
2022-09-15T19:13:52.948Z,97391.28
2022-09-15T19:16:46.672Z,97387.91
2022-09-15T19:29:58.262Z,97384.50
2022-09-15T19:32:33.401Z,97389.88
2022-09-15T19:35:07.202Z,97392.75
2022-09-15T19:37:42.615Z,97396.59
2022-09-15T19:40:20.286Z,97393.38
2022-09-15T19:56:58.174Z,97397.53
2022-09-15T19:59:38.209Z,97391.66
2022-09-15T20:02:11.652Z,97402.56
2022-09-15T20:04:46.246Z,97401.03
2022-09-15T20:07:19.575Z,97396.81
2022-09-15T20:09:53.214Z,97398.00
2022-09-15T20:23:05.281Z,97416.19
2022-09-15T20:25:38.573Z,97417.34
2022-09-15T20:28:12.259Z,97408.31
2022-09-15T20:30:45.558Z,97417.19
2022-09-15T20:33:19.307Z,97415.50
2022-09-15T20:35:53.242Z,97424.41
2022-09-15T20:48:43.213Z,97421.03
2022-09-15T20:51:26.233Z,97425.56
2022-09-15T20:54:02.599Z,97428.38
2022-09-15T20:56:43.226Z,97428.56
2022-09-15T20:59:16.587Z,97422.53
2022-09-15T21:01:50.278Z,97422.81
2022-09-15T21:04:25.525Z,97426.50
2022-09-15T21:17:14.232Z,97428.78
2022-09-15T21:19:56.273Z,97424.41
2022-09-15T21:22:29.822Z,97426.25
2022-09-15T21:25:03.294Z,97429.13
2022-09-15T21:27:36.952Z,97431.78
2022-09-15T21:30:12.252Z,97429.13
2022-09-15T21:43:24.272Z,97429.94
2022-09-15T21:45:58.547Z,97429.13
2022-09-15T21:48:32.301Z,97439.84
2022-09-15T21:51:07.096Z,97439.84
2022-09-15T21:53:41.313Z,97436.13
2022-09-15T21:56:15.020Z,97439.69
2022-09-15T22:09:05.219Z,97446.50
2022-09-15T22:11:46.419Z,97444.81
2022-09-15T22:14:19.879Z,97444.97
2022-09-15T22:16:53.321Z,97451.19
2022-09-15T22:19:30.307Z,97449.50
2022-09-15T22:22:04.318Z,97458.56
2022-09-15T22:24:39.735Z,97464.38
2022-09-15T22:37:28.227Z,97479.56
2022-09-15T22:40:11.290Z,97470.81
2022-09-15T22:42:45.866Z,97474.81
2022-09-15T22:45:19.288Z,97467.91
2022-09-15T22:47:52.729Z,97472.44
2022-09-15T22:50:26.307Z,97468.91
2022-09-15T23:03:38.317Z,97466.38
2022-09-15T23:06:11.931Z,97470.06
2022-09-15T23:08:45.427Z,97471.91
2022-09-15T23:11:19.588Z,97478.94
2022-09-15T23:13:54.427Z,97477.41
2022-09-15T23:16:30.553Z,97478.44
2022-09-15T23:29:28.228Z,97483.38
2022-09-15T23:32:09.268Z,97476.03
2022-09-15T23:34:42.827Z,97481.25
2022-09-15T23:37:16.247Z,97479.41
2022-09-15T23:39:49.768Z,97468.69
2022-09-15T23:42:30.288Z,97471.06
2022-09-15T23:45:07.188Z,97473.56
2022-09-15T23:58:02.227Z,97476.03
